Terminal Aerodrome Forecast
Issued by NWS Wichita, KS

Home | Current Version | Previous Version | Text Only | Print | Product List | Glossary On
Versions: 1 2 3 4 5 6 7 8 9 10 11 12 13 14 15 16 17
775
FTUS43 KICT 292320
TAFICT
TAF
KICT 292320Z 3000/3024 03012G20KT 5SM -RA BR OVC007
      TEMPO 3010/3014 2SM BR OVC004
     FM301400 24010KT 5SM -RA BR OVC008
     FM301800 28014KT P6SM OVC015=

USA.gov is the U.S. government's official web portal to all federal, state and local government web resources and services.